Check out our new PWSWeather beta!
PWSweather.com
Personal Weather Stations
Station Observations
SPARKSRC
St. Petersburg, FL 33716

St. Petersburg, FL 33716

Lat: 27.876101, Lon: -82.657194

Elevation: 13

Station Type: Zephyr PWS-1000TD

High Low Average
Temperature 84.6°F29.2°C 61.3°F16.3°C 70.1°F21.2°C
Dew Point 72.3°F22.4°C 56.5°F13.6°C 63.1°F17.3°C
Winds 19.0 mph 30.6 kmh Calm Calm 7.0 mph SSW11.3 kmh SSW
Wind Gusts 25.9 mph41.7 kmh 2.2 mph3.5 kmh 13.0 mph20.9 kmh
Humidity 85% 66% 79%
Pressure 30.02 in1016.6 mb 29.82 in1009.8 mb -
Precipitation 0.09 in2.3 mm - -
Hour Temp Dew Point Humidity Winds Wind Gusts Pressure Precip Precip Rate Daily Precip Total
12:00 AM 67.5°F19.7°C 60.4°F15.8°C 78% 2.2 mph ENE3.5 kmh ENE 5.4 mph8.7 kmh 29.95 in1014.2 mb 0.00 in0.0 mm 0.00 in0.0 mm 0.00 in0.0 mm
12:05 AM 67.6°F19.8°C 60.6°F15.9°C 78% 0.7 mph NE1.1 kmh NE 3.1 mph5.0 kmh 29.95 in1014.2 mb 0.00 in0.0 mm 0.00 in0.0 mm 0.00 in0.0 mm
12:10 AM 67.5°F19.7°C 60.4°F15.8°C 78% 4.5 mph NE7.2 kmh NE 5.4 mph8.7 kmh 29.94 in1013.9 mb 0.00 in0.0 mm 0.00 in0.0 mm 0.00 in0.0 mm
12:15 AM 67.1°F19.5°C 60.4°F15.8°C 79% 5.4 mph E8.7 kmh E 8.3 mph13.4 kmh 29.93 in1013.5 mb 0.00 in0.0 mm 0.00 in0.0 mm 0.00 in0.0 mm
12:20 AM 67.1°F19.5°C 60.4°F15.8°C 79% 4.5 mph E7.2 kmh E 8.3 mph13.4 kmh 29.93 in1013.5 mb 0.00 in0.0 mm 0.00 in0.0 mm 0.00 in0.0 mm
12:25 AM 67.1°F19.5°C 60.4°F15.8°C 79% 6.0 mph E9.7 kmh E 7.6 mph12.2 kmh 29.93 in1013.5 mb 0.00 in0.0 mm 0.00 in0.0 mm 0.00 in0.0 mm
12:30 AM 67.1°F19.5°C 60.4°F15.8°C 79% 6.0 mph E9.7 kmh E 9.8 mph15.8 kmh 29.92 in1013.2 mb 0.00 in0.0 mm 0.00 in0.0 mm 0.00 in0.0 mm
12:35 AM 67.1°F19.5°C 60.4°F15.8°C 79% 6.9 mph E11.1 kmh E 10.7 mph17.2 kmh 29.92 in1013.2 mb 0.00 in0.0 mm 0.00 in0.0 mm 0.00 in0.0 mm
12:40 AM 67.1°F19.5°C 60.4°F15.8°C 79% 2.2 mph E3.5 kmh E 10.7 mph17.2 kmh 29.93 in1013.5 mb 0.00 in0.0 mm 0.00 in0.0 mm 0.00 in0.0 mm
12:45 AM 67.1°F19.5°C 60.4°F15.8°C 79% 4.5 mph E7.2 kmh E 9.2 mph14.8 kmh 29.92 in1013.2 mb 0.00 in0.0 mm 0.00 in0.0 mm 0.00 in0.0 mm
12:50 AM 67.1°F19.5°C 60.4°F15.8°C 79% 4.5 mph E7.2 kmh E 6.9 mph11.1 kmh 29.92 in1013.2 mb 0.00 in0.0 mm 0.00 in0.0 mm 0.00 in0.0 mm
12:55 AM 67.3°F19.6°C 60.6°F15.9°C 79% 3.1 mph E5.0 kmh E 6.9 mph11.1 kmh 29.92 in1013.2 mb 0.00 in0.0 mm 0.00 in0.0 mm 0.00 in0.0 mm
01:00 AM 67.1°F19.5°C 60.4°F15.8°C 79% 3.1 mph ESE5.0 kmh ESE 6.9 mph11.1 kmh 29.93 in1013.5 mb 0.00 in0.0 mm 0.00 in0.0 mm 0.00 in0.0 mm
01:05 AM 67.1°F19.5°C 60.4°F15.8°C 79% 6.0 mph SE9.7 kmh SE 8.3 mph13.4 kmh 29.92 in1013.2 mb 0.00 in0.0 mm 0.00 in0.0 mm 0.00 in0.0 mm
01:10 AM 67.1°F19.5°C 60.4°F15.8°C 79% 6.0 mph SE9.7 kmh SE 9.8 mph15.8 kmh 29.92 in1013.2 mb 0.00 in0.0 mm 0.00 in0.0 mm 0.00 in0.0 mm
01:15 AM 67.1°F19.5°C 60.4°F15.8°C 79% 8.3 mph ESE13.4 kmh ESE 13.0 mph20.9 kmh 29.92 in1013.2 mb 0.00 in0.0 mm 0.00 in0.0 mm 0.00 in0.0 mm
01:20 AM 67.1°F19.5°C 60.4°F15.8°C 79% 6.9 mph ESE11.1 kmh ESE 13.0 mph20.9 kmh 29.91 in1012.9 mb 0.00 in0.0 mm 0.00 in0.0 mm 0.00 in0.0 mm
01:25 AM 66.7°F19.3°C 60.4°F15.8°C 80% 5.4 mph ESE8.7 kmh ESE 12.1 mph19.5 kmh 29.92 in1013.2 mb 0.00 in0.0 mm 0.00 in0.0 mm 0.00 in0.0 mm
01:30 AM 66.7°F19.3°C 60.4°F15.8°C 80% 3.1 mph E5.0 kmh E 12.1 mph19.5 kmh 29.91 in1012.9 mb 0.00 in0.0 mm 0.00 in0.0 mm 0.00 in0.0 mm
01:35 AM 66.7°F19.3°C 60.4°F15.8°C 80% 4.5 mph ESE7.2 kmh ESE 9.8 mph15.8 kmh 29.91 in1012.9 mb 0.00 in0.0 mm 0.00 in0.0 mm 0.00 in0.0 mm
01:40 AM 66.7°F19.3°C 60.4°F15.8°C 80% 2.2 mph E3.5 kmh E 6.9 mph11.1 kmh 29.91 in1012.9 mb 0.00 in0.0 mm 0.00 in0.0 mm 0.00 in0.0 mm
01:45 AM 66.6°F19.2°C 60.2°F15.7°C 80% 3.1 mph ESE5.0 kmh ESE 6.9 mph11.1 kmh 29.91 in1012.9 mb 0.00 in0.0 mm 0.00 in0.0 mm 0.00 in0.0 mm
01:50 AM 66.4°F19.1°C 60.0°F15.6°C 80% 1.6 mph SE2.6 kmh SE 6.0 mph9.7 kmh 29.91 in1012.9 mb 0.00 in0.0 mm 0.00 in0.0 mm 0.00 in0.0 mm
01:55 AM 66.4°F19.1°C 60.0°F15.6°C 80% 2.2 mph SE3.5 kmh SE 6.0 mph9.7 kmh 29.91 in1012.9 mb 0.00 in0.0 mm 0.00 in0.0 mm 0.00 in0.0 mm
02:00 AM 66.4°F19.1°C 60.0°F15.6°C 80% 4.5 mph SE7.2 kmh SE 5.4 mph8.7 kmh 29.91 in1012.9 mb 0.00 in0.0 mm 0.00 in0.0 mm 0.00 in0.0 mm
02:05 AM 66.2°F19.0°C 59.9°F15.5°C 80% 3.8 mph ESE6.1 kmh ESE 10.7 mph17.2 kmh 29.91 in1012.9 mb 0.00 in0.0 mm 0.00 in0.0 mm 0.00 in0.0 mm
02:10 AM 66.2°F19.0°C 59.9°F15.5°C 80% 3.1 mph ESE5.0 kmh ESE 10.7 mph17.2 kmh 29.91 in1012.9 mb 0.00 in0.0 mm 0.00 in0.0 mm 0.00 in0.0 mm
02:15 AM 66.2°F19.0°C 59.9°F15.5°C 80% 4.5 mph SE7.2 kmh SE 7.6 mph12.2 kmh 29.91 in1012.9 mb 0.00 in0.0 mm 0.00 in0.0 mm 0.00 in0.0 mm
02:20 AM 66.4°F19.1°C 60.0°F15.6°C 80% 3.8 mph SE6.1 kmh SE 6.9 mph11.1 kmh 29.91 in1012.9 mb 0.00 in0.0 mm 0.00 in0.0 mm 0.00 in0.0 mm
02:25 AM 66.4°F19.1°C 60.0°F15.6°C 80% 3.1 mph SE5.0 kmh SE 6.9 mph11.1 kmh 29.91 in1012.9 mb 0.00 in0.0 mm 0.00 in0.0 mm 0.00 in0.0 mm
02:30 AM 66.4°F19.1°C 60.0°F15.6°C 80% 3.8 mph SE6.1 kmh SE 6.9 mph11.1 kmh 29.90 in1012.5 mb 0.00 in0.0 mm 0.00 in0.0 mm 0.00 in0.0 mm
02:35 AM 66.4°F19.1°C 60.4°F15.8°C 81% 1.6 mph SE2.6 kmh SE 6.9 mph11.1 kmh 29.91 in1012.9 mb 0.00 in0.0 mm 0.00 in0.0 mm 0.00 in0.0 mm
02:40 AM 66.4°F19.1°C 60.0°F15.6°C 80% 2.2 mph SSE3.5 kmh SSE 6.9 mph11.1 kmh 29.90 in1012.5 mb 0.00 in0.0 mm 0.00 in0.0 mm 0.00 in0.0 mm
02:45 AM 66.4°F19.1°C 60.0°F15.6°C 80% 2.2 mph S3.5 kmh S 5.4 mph8.7 kmh 29.91 in1012.9 mb 0.00 in0.0 mm 0.00 in0.0 mm 0.00 in0.0 mm
02:50 AM 66.6°F19.2°C 60.2°F15.7°C 80% 4.5 mph S7.2 kmh S 6.0 mph9.7 kmh 29.90 in1012.5 mb 0.00 in0.0 mm 0.00 in0.0 mm 0.00 in0.0 mm
02:55 AM 66.4°F19.1°C 60.4°F15.8°C 81% 4.5 mph S7.2 kmh S 6.0 mph9.7 kmh 29.90 in1012.5 mb 0.00 in0.0 mm 0.00 in0.0 mm 0.00 in0.0 mm
03:00 AM 66.6°F19.2°C 60.6°F15.9°C 81% 3.1 mph S5.0 kmh S 6.0 mph9.7 kmh 29.90 in1012.5 mb 0.00 in0.0 mm 0.00 in0.0 mm 0.00 in0.0 mm
03:05 AM 66.6°F19.2°C 60.2°F15.7°C 80% 3.1 mph S5.0 kmh S 5.4 mph8.7 kmh 29.90 in1012.5 mb 0.00 in0.0 mm 0.00 in0.0 mm 0.00 in0.0 mm
03:10 AM 66.6°F19.2°C 60.2°F15.7°C 80% 3.1 mph S5.0 kmh S 3.8 mph6.1 kmh 29.90 in1012.5 mb 0.00 in0.0 mm 0.00 in0.0 mm 0.00 in0.0 mm
03:15 AM 66.6°F19.2°C 60.2°F15.7°C 80% 4.5 mph SE7.2 kmh SE 6.0 mph9.7 kmh 29.89 in1012.2 mb 0.00 in0.0 mm 0.00 in0.0 mm 0.00 in0.0 mm
03:20 AM 66.7°F19.3°C 60.4°F15.8°C 80% 4.5 mph SE7.2 kmh SE 6.9 mph11.1 kmh 29.90 in1012.5 mb 0.00 in0.0 mm 0.00 in0.0 mm 0.00 in0.0 mm
03:25 AM 66.7°F19.3°C 60.4°F15.8°C 80% 6.0 mph S9.7 kmh S 7.6 mph12.2 kmh 29.90 in1012.5 mb 0.00 in0.0 mm 0.00 in0.0 mm 0.00 in0.0 mm
03:30 AM 66.7°F19.3°C 60.4°F15.8°C 80% 4.5 mph S7.2 kmh S 7.6 mph12.2 kmh 29.90 in1012.5 mb 0.00 in0.0 mm 0.00 in0.0 mm 0.00 in0.0 mm
03:35 AM 66.7°F19.3°C 60.4°F15.8°C 80% 3.1 mph S5.0 kmh S 7.6 mph12.2 kmh 29.91 in1012.9 mb 0.00 in0.0 mm 0.00 in0.0 mm 0.00 in0.0 mm
03:40 AM 66.9°F19.4°C 60.6°F15.9°C 80% 3.1 mph S5.0 kmh S 6.0 mph9.7 kmh 29.90 in1012.5 mb 0.00 in0.0 mm 0.00 in0.0 mm 0.00 in0.0 mm
03:45 AM 66.9°F19.4°C 60.6°F15.9°C 80% 3.1 mph SE5.0 kmh SE 5.4 mph8.7 kmh 29.89 in1012.2 mb 0.00 in0.0 mm 0.00 in0.0 mm 0.00 in0.0 mm
03:50 AM 66.9°F19.4°C 60.6°F15.9°C 80% 3.1 mph SE5.0 kmh SE 5.4 mph8.7 kmh 29.89 in1012.2 mb 0.00 in0.0 mm 0.00 in0.0 mm 0.00 in0.0 mm
03:55 AM 67.1°F19.5°C 60.7°F15.9°C 80% 2.2 mph SE3.5 kmh SE 6.0 mph9.7 kmh 29.89 in1012.2 mb 0.00 in0.0 mm 0.00 in0.0 mm 0.00 in0.0 mm
04:00 AM 67.1°F19.5°C 60.7°F15.9°C 80% 3.1 mph SE5.0 kmh SE 6.0 mph9.7 kmh 29.89 in1012.2 mb 0.00 in0.0 mm 0.00 in0.0 mm 0.00 in0.0 mm
04:05 AM 66.9°F19.4°C 60.6°F15.9°C 80% 3.1 mph SSE5.0 kmh SSE 4.5 mph7.2 kmh 29.89 in1012.2 mb 0.00 in0.0 mm 0.00 in0.0 mm 0.00 in0.0 mm
04:10 AM 66.9°F19.4°C 60.6°F15.9°C 80% 4.5 mph S7.2 kmh S 5.4 mph8.7 kmh 29.89 in1012.2 mb 0.00 in0.0 mm 0.00 in0.0 mm 0.00 in0.0 mm
04:15 AM 67.1°F19.5°C 60.7°F15.9°C 80% 1.6 mph SE2.6 kmh SE 5.4 mph8.7 kmh 29.89 in1012.2 mb 0.00 in0.0 mm 0.00 in0.0 mm 0.00 in0.0 mm
04:20 AM 66.9°F19.4°C 60.6°F15.9°C 80% 3.8 mph SE6.1 kmh SE 5.4 mph8.7 kmh 29.89 in1012.2 mb 0.00 in0.0 mm 0.00 in0.0 mm 0.00 in0.0 mm
04:25 AM 66.9°F19.4°C 60.6°F15.9°C 80% 3.8 mph SE6.1 kmh SE 5.4 mph8.7 kmh 29.88 in1011.9 mb 0.00 in0.0 mm 0.00 in0.0 mm 0.00 in0.0 mm
04:30 AM 66.9°F19.4°C 60.6°F15.9°C 80% 4.5 mph SE7.2 kmh SE 5.4 mph8.7 kmh 29.89 in1012.2 mb 0.00 in0.0 mm 0.00 in0.0 mm 0.00 in0.0 mm
04:35 AM 67.1°F19.5°C 60.7°F15.9°C 80% 3.8 mph SE6.1 kmh SE 5.4 mph8.7 kmh 29.89 in1012.2 mb 0.00 in0.0 mm 0.00 in0.0 mm 0.00 in0.0 mm
04:40 AM 67.1°F19.5°C 60.7°F15.9°C 80% 4.5 mph SE7.2 kmh SE 7.6 mph12.2 kmh 29.88 in1011.9 mb 0.00 in0.0 mm 0.00 in0.0 mm 0.00 in0.0 mm
04:45 AM 66.9°F19.4°C 60.6°F15.9°C 80% 4.5 mph SE7.2 kmh SE 7.6 mph12.2 kmh 29.88 in1011.9 mb 0.00 in0.0 mm 0.00 in0.0 mm 0.00 in0.0 mm
04:50 AM 67.1°F19.5°C 60.7°F15.9°C 80% 4.5 mph SE7.2 kmh SE 8.3 mph13.4 kmh 29.88 in1011.9 mb 0.00 in0.0 mm 0.00 in0.0 mm 0.00 in0.0 mm
04:55 AM 66.9°F19.4°C 60.6°F15.9°C 80% 4.5 mph SE7.2 kmh SE 8.3 mph13.4 kmh 29.88 in1011.9 mb 0.00 in0.0 mm 0.00 in0.0 mm 0.00 in0.0 mm
05:00 AM 67.1°F19.5°C 60.7°F15.9°C 80% 3.1 mph SE5.0 kmh SE 9.2 mph14.8 kmh 29.88 in1011.9 mb 0.00 in0.0 mm 0.00 in0.0 mm 0.00 in0.0 mm
05:05 AM 67.3°F19.6°C 61.3°F16.3°C 81% 6.9 mph SE11.1 kmh SE 9.2 mph14.8 kmh 29.88 in1011.9 mb 0.00 in0.0 mm 0.00 in0.0 mm 0.00 in0.0 mm
05:10 AM 67.3°F19.6°C 61.3°F16.3°C 81% 7.6 mph SE12.2 kmh SE 9.8 mph15.8 kmh 29.88 in1011.9 mb 0.00 in0.0 mm 0.00 in0.0 mm 0.00 in0.0 mm
05:15 AM 67.5°F19.7°C 61.5°F16.4°C 81% 8.3 mph SE13.4 kmh SE 12.1 mph19.5 kmh 29.88 in1011.9 mb 0.00 in0.0 mm 0.00 in0.0 mm 0.00 in0.0 mm
05:20 AM 67.1°F19.5°C 61.1°F16.2°C 81% 8.3 mph SE13.4 kmh SE 13.0 mph20.9 kmh 29.87 in1011.5 mb 0.01 in0.3 mm 0.12 in3.0 mm 0.01 in0.3 mm
05:25 AM 66.7°F19.3°C 60.7°F15.9°C 81% 9.8 mph SE15.8 kmh SE 14.5 mph23.3 kmh 29.87 in1011.5 mb 0.01 in0.3 mm 0.00 in0.0 mm 0.01 in0.3 mm
05:30 AM 66.7°F19.3°C 61.1°F16.2°C 82% 8.3 mph SE13.4 kmh SE 14.5 mph23.3 kmh 29.87 in1011.5 mb 0.01 in0.3 mm 0.00 in0.0 mm 0.01 in0.3 mm
05:35 AM 66.6°F19.2°C 60.9°F16.1°C 82% 6.0 mph SE9.7 kmh SE 14.5 mph23.3 kmh 29.87 in1011.5 mb 0.01 in0.3 mm 0.00 in0.0 mm 0.01 in0.3 mm
05:40 AM 66.4°F19.1°C 60.7°F15.9°C 82% 8.3 mph SE13.4 kmh SE 12.1 mph19.5 kmh 29.86 in1011.2 mb 0.01 in0.3 mm 0.00 in0.0 mm 0.01 in0.3 mm
05:45 AM 66.4°F19.1°C 60.7°F15.9°C 82% 8.3 mph SE13.4 kmh SE 13.0 mph20.9 kmh 29.87 in1011.5 mb 0.01 in0.3 mm 0.00 in0.0 mm 0.01 in0.3 mm
05:50 AM 66.6°F19.2°C 60.9°F16.1°C 82% 6.9 mph SE11.1 kmh SE 13.0 mph20.9 kmh 29.87 in1011.5 mb 0.01 in0.3 mm 0.00 in0.0 mm 0.01 in0.3 mm
05:55 AM 66.4°F19.1°C 60.7°F15.9°C 82% 5.4 mph SE8.7 kmh SE 10.7 mph17.2 kmh 29.87 in1011.5 mb 0.01 in0.3 mm 0.00 in0.0 mm 0.01 in0.3 mm
06:00 AM 66.4°F19.1°C 60.7°F15.9°C 82% 5.4 mph SSE8.7 kmh SSE 10.7 mph17.2 kmh 29.87 in1011.5 mb 0.01 in0.3 mm 0.00 in0.0 mm 0.01 in0.3 mm
06:05 AM 66.4°F19.1°C 60.7°F15.9°C 82% 6.9 mph SE11.1 kmh SE 9.2 mph14.8 kmh 29.87 in1011.5 mb 0.01 in0.3 mm 0.00 in0.0 mm 0.01 in0.3 mm
06:10 AM 66.0°F18.9°C 60.4°F15.8°C 82% 4.5 mph SE7.2 kmh SE 9.2 mph14.8 kmh 29.87 in1011.5 mb 0.01 in0.3 mm 0.00 in0.0 mm 0.01 in0.3 mm
06:15 AM 66.0°F18.9°C 60.4°F15.8°C 82% 3.1 mph SE5.0 kmh SE 9.2 mph14.8 kmh 29.87 in1011.5 mb 0.01 in0.3 mm 0.00 in0.0 mm 0.01 in0.3 mm
06:20 AM 66.2°F19.0°C 60.6°F15.9°C 82% 3.8 mph SE6.1 kmh SE 6.9 mph11.1 kmh 29.87 in1011.5 mb 0.00 in0.0 mm 0.00 in0.0 mm 0.01 in0.3 mm
06:25 AM 66.2°F19.0°C 60.6°F15.9°C 82% 5.4 mph SE8.7 kmh SE 6.9 mph11.1 kmh 29.87 in1011.5 mb 0.00 in0.0 mm 0.00 in0.0 mm 0.01 in0.3 mm
06:30 AM 66.2°F19.0°C 60.6°F15.9°C 82% 6.9 mph SE11.1 kmh SE 11.4 mph18.3 kmh 29.87 in1011.5 mb 0.00 in0.0 mm 0.00 in0.0 mm 0.01 in0.3 mm
06:35 AM 66.4°F19.1°C 60.7°F15.9°C 82% 7.6 mph SE12.2 kmh SE 12.1 mph19.5 kmh 29.87 in1011.5 mb 0.00 in0.0 mm 0.00 in0.0 mm 0.01 in0.3 mm
06:40 AM 66.2°F19.0°C 60.2°F15.7°C 81% 6.9 mph SE11.1 kmh SE 12.1 mph19.5 kmh 29.87 in1011.5 mb 0.00 in0.0 mm 0.00 in0.0 mm 0.01 in0.3 mm
06:45 AM 66.0°F18.9°C 60.4°F15.8°C 82% 4.5 mph SE7.2 kmh SE 11.4 mph18.3 kmh 29.86 in1011.2 mb 0.00 in0.0 mm 0.00 in0.0 mm 0.01 in0.3 mm
06:50 AM 66.2°F19.0°C 60.2°F15.7°C 81% 6.9 mph SE11.1 kmh SE 10.7 mph17.2 kmh 29.86 in1011.2 mb 0.00 in0.0 mm 0.00 in0.0 mm 0.01 in0.3 mm
06:55 AM 66.2°F19.0°C 60.6°F15.9°C 82% 8.3 mph SE13.4 kmh SE 12.1 mph19.5 kmh 29.86 in1011.2 mb 0.00 in0.0 mm 0.00 in0.0 mm 0.01 in0.3 mm
07:00 AM 66.2°F19.0°C 60.6°F15.9°C 82% 5.4 mph SE8.7 kmh SE 12.1 mph19.5 kmh 29.86 in1011.2 mb 0.00 in0.0 mm 0.00 in0.0 mm 0.01 in0.3 mm
07:05 AM 66.2°F19.0°C 60.6°F15.9°C 82% 7.6 mph SE12.2 kmh SE 12.1 mph19.5 kmh 29.87 in1011.5 mb 0.00 in0.0 mm 0.00 in0.0 mm 0.01 in0.3 mm
07:10 AM 66.4°F19.1°C 60.7°F15.9°C 82% 8.3 mph SE13.4 kmh SE 12.1 mph19.5 kmh 29.87 in1011.5 mb 0.00 in0.0 mm 0.00 in0.0 mm 0.01 in0.3 mm
07:15 AM 66.6°F19.2°C 60.9°F16.1°C 82% 6.0 mph SE9.7 kmh SE 12.1 mph19.5 kmh 29.87 in1011.5 mb 0.00 in0.0 mm 0.00 in0.0 mm 0.01 in0.3 mm
07:20 AM 66.7°F19.3°C 61.1°F16.2°C 82% 5.4 mph SE8.7 kmh SE 12.1 mph19.5 kmh 29.87 in1011.5 mb 0.00 in0.0 mm 0.00 in0.0 mm 0.01 in0.3 mm
07:25 AM 67.1°F19.5°C 61.4°F16.3°C 82% 5.4 mph SE8.7 kmh SE 10.7 mph17.2 kmh 29.87 in1011.5 mb 0.00 in0.0 mm 0.00 in0.0 mm 0.01 in0.3 mm
07:30 AM 67.3°F19.6°C 61.6°F16.4°C 82% 6.9 mph SE11.1 kmh SE 10.7 mph17.2 kmh 29.87 in1011.5 mb 0.00 in0.0 mm 0.00 in0.0 mm 0.01 in0.3 mm
07:35 AM 67.5°F19.7°C 61.8°F16.6°C 82% 6.0 mph SE9.7 kmh SE 11.4 mph18.3 kmh 29.87 in1011.5 mb 0.00 in0.0 mm 0.00 in0.0 mm 0.01 in0.3 mm
07:40 AM 67.6°F19.8°C 61.6°F16.4°C 81% 6.9 mph SE11.1 kmh SE 11.4 mph18.3 kmh 29.87 in1011.5 mb 0.00 in0.0 mm 0.00 in0.0 mm 0.01 in0.3 mm
07:45 AM 67.6°F19.8°C 61.6°F16.4°C 81% 8.3 mph SE13.4 kmh SE 13.0 mph20.9 kmh 29.87 in1011.5 mb 0.00 in0.0 mm 0.00 in0.0 mm 0.01 in0.3 mm
07:50 AM 67.6°F19.8°C 61.6°F16.4°C 81% 7.6 mph SE12.2 kmh SE 13.0 mph20.9 kmh 29.87 in1011.5 mb 0.00 in0.0 mm 0.00 in0.0 mm 0.01 in0.3 mm
07:55 AM 67.6°F19.8°C 61.6°F16.4°C 81% 6.0 mph SE9.7 kmh SE 13.0 mph20.9 kmh 29.87 in1011.5 mb 0.00 in0.0 mm 0.00 in0.0 mm 0.01 in0.3 mm
08:00 AM 68.0°F20.0°C 62.0°F16.7°C 81% 8.3 mph SE13.4 kmh SE 12.1 mph19.5 kmh 29.87 in1011.5 mb 0.00 in0.0 mm 0.00 in0.0 mm 0.01 in0.3 mm
08:05 AM 67.8°F19.9°C 61.8°F16.6°C 81% 6.9 mph SE11.1 kmh SE 12.1 mph19.5 kmh 29.87 in1011.5 mb 0.00 in0.0 mm 0.00 in0.0 mm 0.01 in0.3 mm
08:10 AM 68.0°F20.0°C 62.0°F16.7°C 81% 8.3 mph SE13.4 kmh SE 12.1 mph19.5 kmh 29.87 in1011.5 mb 0.00 in0.0 mm 0.00 in0.0 mm 0.01 in0.3 mm
08:15 AM 68.0°F20.0°C 62.0°F16.7°C 81% 6.9 mph SE11.1 kmh SE 12.1 mph19.5 kmh 29.86 in1011.2 mb 0.00 in0.0 mm 0.00 in0.0 mm 0.01 in0.3 mm
08:20 AM 68.2°F20.1°C 62.2°F16.8°C 81% 8.3 mph SE13.4 kmh SE 12.1 mph19.5 kmh 29.86 in1011.2 mb 0.00 in0.0 mm 0.00 in0.0 mm 0.01 in0.3 mm
08:25 AM 68.7°F20.4°C 63.0°F17.2°C 82% 6.9 mph SE11.1 kmh SE 15.2 mph24.5 kmh 29.86 in1011.2 mb 0.00 in0.0 mm 0.00 in0.0 mm 0.01 in0.3 mm
08:30 AM 70.0°F21.1°C 64.3°F17.9°C 82% 10.7 mph SE17.2 kmh SE 15.2 mph24.5 kmh 29.86 in1011.2 mb 0.00 in0.0 mm 0.00 in0.0 mm 0.01 in0.3 mm
08:35 AM 71.4°F21.9°C 65.0°F18.3°C 80% 7.6 mph SE12.2 kmh SE 14.5 mph23.3 kmh 29.87 in1011.5 mb 0.00 in0.0 mm 0.00 in0.0 mm 0.01 in0.3 mm
08:40 AM 72.9°F22.7°C 66.0°F18.9°C 79% 8.3 mph SE13.4 kmh SE 13.6 mph21.9 kmh 29.87 in1011.5 mb 0.00 in0.0 mm 0.00 in0.0 mm 0.01 in0.3 mm
08:45 AM 74.5°F23.6°C 66.8°F19.3°C 77% 9.8 mph SE15.8 kmh SE 13.6 mph21.9 kmh 29.87 in1011.5 mb 0.00 in0.0 mm 0.00 in0.0 mm 0.01 in0.3 mm
08:50 AM 75.9°F24.4°C 67.5°F19.7°C 75% 13.0 mph SE20.9 kmh SE 15.9 mph25.6 kmh 29.87 in1011.5 mb 0.00 in0.0 mm 0.00 in0.0 mm 0.01 in0.3 mm
08:55 AM 76.6°F24.8°C 67.8°F19.9°C 74% 8.3 mph SE13.4 kmh SE 15.9 mph25.6 kmh 29.88 in1011.9 mb 0.00 in0.0 mm 0.00 in0.0 mm 0.01 in0.3 mm
09:00 AM 77.4°F25.2°C 68.1°F20.1°C 73% 9.8 mph SE15.8 kmh SE 15.9 mph25.6 kmh 29.87 in1011.5 mb 0.00 in0.0 mm 0.00 in0.0 mm 0.01 in0.3 mm
09:05 AM 77.7°F25.4°C 67.6°F19.8°C 71% 9.8 mph SE15.8 kmh SE 14.5 mph23.3 kmh 29.88 in1011.9 mb 0.00 in0.0 mm 0.00 in0.0 mm 0.01 in0.3 mm
09:10 AM 77.9°F25.5°C 67.8°F19.9°C 71% 8.3 mph SE13.4 kmh SE 15.2 mph24.5 kmh 29.88 in1011.9 mb 0.00 in0.0 mm 0.00 in0.0 mm 0.01 in0.3 mm
09:15 AM 78.3°F25.7°C 68.1°F20.1°C 71% 6.9 mph SE11.1 kmh SE 15.2 mph24.5 kmh 29.88 in1011.9 mb 0.00 in0.0 mm 0.00 in0.0 mm 0.01 in0.3 mm
09:20 AM 78.3°F25.7°C 68.1°F20.1°C 71% 9.2 mph SE14.8 kmh SE 13.0 mph20.9 kmh 29.88 in1011.9 mb 0.00 in0.0 mm 0.00 in0.0 mm 0.01 in0.3 mm
09:25 AM 77.9°F25.5°C 67.8°F19.9°C 71% 6.9 mph SE11.1 kmh SE 12.1 mph19.5 kmh 29.88 in1011.9 mb 0.00 in0.0 mm 0.00 in0.0 mm 0.01 in0.3 mm
09:30 AM 77.9°F25.5°C 67.8°F19.9°C 71% 9.2 mph SE14.8 kmh SE 13.6 mph21.9 kmh 29.88 in1011.9 mb 0.00 in0.0 mm 0.00 in0.0 mm 0.01 in0.3 mm
09:35 AM 77.9°F25.5°C 67.8°F19.9°C 71% 10.7 mph SE17.2 kmh SE 17.4 mph28.0 kmh 29.88 in1011.9 mb 0.00 in0.0 mm 0.00 in0.0 mm 0.01 in0.3 mm
09:40 AM 78.1°F25.6°C 68.0°F20.0°C 71% 9.2 mph SE14.8 kmh SE 17.4 mph28.0 kmh 29.89 in1012.2 mb 0.00 in0.0 mm 0.00 in0.0 mm 0.01 in0.3 mm
09:45 AM 77.9°F25.5°C 67.8°F19.9°C 71% 9.2 mph SE14.8 kmh SE 17.4 mph28.0 kmh 29.88 in1011.9 mb 0.00 in0.0 mm 0.00 in0.0 mm 0.01 in0.3 mm
09:50 AM 77.9°F25.5°C 67.8°F19.9°C 71% 8.3 mph SE13.4 kmh SE 15.9 mph25.6 kmh 29.88 in1011.9 mb 0.00 in0.0 mm 0.00 in0.0 mm 0.01 in0.3 mm
09:55 AM 78.1°F25.6°C 68.4°F20.2°C 72% 13.0 mph SE20.9 kmh SE 17.4 mph28.0 kmh 29.88 in1011.9 mb 0.00 in0.0 mm 0.00 in0.0 mm 0.01 in0.3 mm
10:00 AM 78.3°F25.7°C 68.5°F20.3°C 72% 10.7 mph SE17.2 kmh SE 19.0 mph30.6 kmh 29.89 in1012.2 mb 0.00 in0.0 mm 0.00 in0.0 mm 0.01 in0.3 mm
10:05 AM 78.1°F25.6°C 68.4°F20.2°C 72% 11.4 mph SE18.3 kmh SE 19.0 mph30.6 kmh 29.89 in1012.2 mb 0.00 in0.0 mm 0.00 in0.0 mm 0.01 in0.3 mm
10:10 AM 78.3°F25.7°C 68.5°F20.3°C 72% 10.7 mph SE17.2 kmh SE 17.4 mph28.0 kmh 29.89 in1012.2 mb 0.00 in0.0 mm 0.00 in0.0 mm 0.01 in0.3 mm
10:15 AM 78.3°F25.7°C 68.5°F20.3°C 72% 12.1 mph SE19.5 kmh SE 18.3 mph29.5 kmh 29.89 in1012.2 mb 0.00 in0.0 mm 0.00 in0.0 mm 0.01 in0.3 mm
10:20 AM 78.4°F25.8°C 68.7°F20.4°C 72% 9.8 mph SSE15.8 kmh SSE 18.3 mph29.5 kmh 29.89 in1012.2 mb 0.00 in0.0 mm 0.00 in0.0 mm 0.01 in0.3 mm
10:25 AM 78.6°F25.9°C 68.9°F20.5°C 72% 8.3 mph SSE13.4 kmh SSE 16.8 mph27.0 kmh 29.89 in1012.2 mb 0.00 in0.0 mm 0.00 in0.0 mm 0.01 in0.3 mm
10:30 AM 79.2°F26.2°C 69.4°F20.8°C 72% 9.8 mph SE15.8 kmh SE 14.5 mph23.3 kmh 29.89 in1012.2 mb 0.00 in0.0 mm 0.00 in0.0 mm 0.01 in0.3 mm
10:35 AM 79.2°F26.2°C 69.0°F20.6°C 71% 10.7 mph SSE17.2 kmh SSE 21.3 mph34.3 kmh 29.89 in1012.2 mb 0.00 in0.0 mm 0.00 in0.0 mm 0.01 in0.3 mm
10:40 AM 79.2°F26.2°C 69.0°F20.6°C 71% 11.4 mph SSE18.3 kmh SSE 21.3 mph34.3 kmh 29.89 in1012.2 mb 0.00 in0.0 mm 0.00 in0.0 mm 0.01 in0.3 mm
10:45 AM 79.3°F26.3°C 69.2°F20.7°C 71% 12.1 mph SE19.5 kmh SE 16.8 mph27.0 kmh 29.89 in1012.2 mb 0.00 in0.0 mm 0.00 in0.0 mm 0.01 in0.3 mm
10:50 AM 79.5°F26.4°C 69.3°F20.7°C 71% 9.8 mph SE15.8 kmh SE 15.2 mph24.5 kmh 29.89 in1012.2 mb 0.00 in0.0 mm 0.00 in0.0 mm 0.01 in0.3 mm
10:55 AM 79.9°F26.6°C 69.7°F20.9°C 71% 7.6 mph SE12.2 kmh SE 15.2 mph24.5 kmh 29.88 in1011.9 mb 0.00 in0.0 mm 0.00 in0.0 mm 0.01 in0.3 mm
11:00 AM 80.4°F26.9°C 70.2°F21.2°C 71% 12.1 mph SE19.5 kmh SE 15.2 mph24.5 kmh 29.88 in1011.9 mb 0.00 in0.0 mm 0.00 in0.0 mm 0.01 in0.3 mm
11:05 AM 80.8°F27.1°C 70.1°F21.2°C 70% 8.3 mph SE13.4 kmh SE 15.2 mph24.5 kmh 29.88 in1011.9 mb 0.00 in0.0 mm 0.00 in0.0 mm 0.01 in0.3 mm
11:10 AM 80.6°F27.0°C 70.0°F21.1°C 70% 10.7 mph SE17.2 kmh SE 19.0 mph30.6 kmh 29.88 in1011.9 mb 0.00 in0.0 mm 0.00 in0.0 mm 0.01 in0.3 mm
11:15 AM 80.6°F27.0°C 70.0°F21.1°C 70% 5.4 mph SE8.7 kmh SE 19.0 mph30.6 kmh 29.89 in1012.2 mb 0.00 in0.0 mm 0.00 in0.0 mm 0.01 in0.3 mm
11:20 AM 80.8°F27.1°C 70.1°F21.2°C 70% 7.6 mph SE12.2 kmh SE 13.6 mph21.9 kmh 29.89 in1012.2 mb 0.00 in0.0 mm 0.00 in0.0 mm 0.01 in0.3 mm
11:25 AM 81.5°F27.5°C 70.8°F21.6°C 70% 13.0 mph SE20.9 kmh SE 15.9 mph25.6 kmh 29.89 in1012.2 mb 0.00 in0.0 mm 0.00 in0.0 mm 0.01 in0.3 mm
11:30 AM 81.7°F27.6°C 70.6°F21.4°C 69% 11.4 mph SE18.3 kmh SE 19.0 mph30.6 kmh 29.89 in1012.2 mb 0.00 in0.0 mm 0.00 in0.0 mm 0.01 in0.3 mm
11:35 AM 82.0°F27.8°C 70.9°F21.6°C 69% 10.7 mph SE17.2 kmh SE 19.0 mph30.6 kmh 29.89 in1012.2 mb 0.00 in0.0 mm 0.00 in0.0 mm 0.01 in0.3 mm
11:40 AM 82.0°F27.8°C 70.9°F21.6°C 69% 9.8 mph SE15.8 kmh SE 18.3 mph29.5 kmh 29.89 in1012.2 mb 0.00 in0.0 mm 0.00 in0.0 mm 0.01 in0.3 mm
11:45 AM 82.0°F27.8°C 70.9°F21.6°C 69% 6.9 mph SSE11.1 kmh SSE 15.2 mph24.5 kmh 29.89 in1012.2 mb 0.00 in0.0 mm 0.00 in0.0 mm 0.01 in0.3 mm
11:50 AM 82.2°F27.9°C 71.1°F21.7°C 69% 6.0 mph SSE9.7 kmh SSE 14.5 mph23.3 kmh 29.89 in1012.2 mb 0.00 in0.0 mm 0.00 in0.0 mm 0.01 in0.3 mm
11:55 AM 82.6°F28.1°C 71.4°F21.9°C 69% 9.8 mph SE15.8 kmh SE 13.0 mph20.9 kmh 29.88 in1011.9 mb 0.00 in0.0 mm 0.00 in0.0 mm 0.01 in0.3 mm
12:00 PM 82.6°F28.1°C 71.0°F21.7°C 68% 6.0 mph SE9.7 kmh SE 12.1 mph19.5 kmh 29.88 in1011.9 mb 0.00 in0.0 mm 0.00 in0.0 mm 0.01 in0.3 mm
12:05 PM 82.9°F28.3°C 71.3°F21.8°C 68% 8.3 mph SE13.4 kmh SE 12.1 mph19.5 kmh 29.88 in1011.9 mb 0.00 in0.0 mm 0.00 in0.0 mm 0.01 in0.3 mm
12:10 PM 83.1°F28.4°C 71.5°F21.9°C 68% 7.6 mph SE12.2 kmh SE 13.0 mph20.9 kmh 29.87 in1011.5 mb 0.00 in0.0 mm 0.00 in0.0 mm 0.01 in0.3 mm
12:15 PM 83.5°F28.6°C 71.9°F22.2°C 68% 6.9 mph SE11.1 kmh SE 13.0 mph20.9 kmh 29.87 in1011.5 mb 0.00 in0.0 mm 0.00 in0.0 mm 0.01 in0.3 mm
12:20 PM 84.4°F29.1°C 72.3°F22.4°C 67% 9.2 mph SE14.8 kmh SE 16.8 mph27.0 kmh 29.86 in1011.2 mb 0.00 in0.0 mm 0.00 in0.0 mm 0.01 in0.3 mm
12:25 PM 84.6°F29.2°C 72.0°F22.2°C 66% 7.6 mph SE12.2 kmh SE 16.8 mph27.0 kmh 29.86 in1011.2 mb 0.00 in0.0 mm 0.00 in0.0 mm 0.01 in0.3 mm
12:30 PM 84.6°F29.2°C 72.0°F22.2°C 66% 6.9 mph SE11.1 kmh SE 15.2 mph24.5 kmh 29.85 in1010.8 mb 0.00 in0.0 mm 0.00 in0.0 mm 0.01 in0.3 mm
12:35 PM 84.4°F29.1°C 71.8°F22.1°C 66% 6.0 mph SE9.7 kmh SE 15.2 mph24.5 kmh 29.84 in1010.5 mb 0.00 in0.0 mm 0.00 in0.0 mm 0.01 in0.3 mm
12:40 PM 83.8°F28.8°C 71.3°F21.8°C 66% 6.9 mph SSE11.1 kmh SSE 13.0 mph20.9 kmh 29.85 in1010.8 mb 0.00 in0.0 mm 0.00 in0.0 mm 0.01 in0.3 mm
12:45 PM 83.3°F28.5°C 70.8°F21.6°C 66% 14.5 mph SE23.3 kmh SE 21.3 mph34.3 kmh 29.84 in1010.5 mb 0.00 in0.0 mm 0.00 in0.0 mm 0.01 in0.3 mm
12:50 PM 82.8°F28.2°C 70.3°F21.3°C 66% 13.0 mph SSE20.9 kmh SSE 21.3 mph34.3 kmh 29.84 in1010.5 mb 0.00 in0.0 mm 0.00 in0.0 mm 0.01 in0.3 mm
12:55 PM 82.0°F27.8°C 70.1°F21.2°C 67% 15.2 mph SSE24.5 kmh SSE 20.6 mph33.2 kmh 29.84 in1010.5 mb 0.00 in0.0 mm 0.00 in0.0 mm 0.01 in0.3 mm
01:00 PM 81.7°F27.6°C 70.1°F21.2°C 68% 12.1 mph SSE19.5 kmh SSE 20.6 mph33.2 kmh 29.84 in1010.5 mb 0.00 in0.0 mm 0.00 in0.0 mm 0.01 in0.3 mm
01:05 PM 81.7°F27.6°C 70.1°F21.2°C 68% 10.7 mph SSE17.2 kmh SSE 19.0 mph30.6 kmh 29.84 in1010.5 mb 0.00 in0.0 mm 0.00 in0.0 mm 0.01 in0.3 mm
01:10 PM 81.7°F27.6°C 70.1°F21.2°C 68% 18.3 mph SSE29.5 kmh SSE 22.1 mph35.6 kmh 29.84 in1010.5 mb 0.00 in0.0 mm 0.00 in0.0 mm 0.01 in0.3 mm
01:15 PM 81.7°F27.6°C 70.1°F21.2°C 68% 13.6 mph S21.9 kmh S 22.1 mph35.6 kmh 29.84 in1010.5 mb 0.00 in0.0 mm 0.00 in0.0 mm 0.01 in0.3 mm
01:20 PM 81.5°F27.5°C 70.0°F21.1°C 68% 13.0 mph S20.9 kmh S 22.1 mph35.6 kmh 29.84 in1010.5 mb 0.00 in0.0 mm 0.00 in0.0 mm 0.01 in0.3 mm
01:25 PM 81.1°F27.3°C 70.1°F21.2°C 69% 11.4 mph S18.3 kmh S 23.5 mph37.8 kmh 29.84 in1010.5 mb 0.00 in0.0 mm 0.00 in0.0 mm 0.01 in0.3 mm
01:30 PM 81.3°F27.4°C 70.2°F21.2°C 69% 19.0 mph S30.6 kmh S 23.5 mph37.8 kmh 29.83 in1010.2 mb 0.00 in0.0 mm 0.00 in0.0 mm 0.01 in0.3 mm
01:35 PM 81.5°F27.5°C 70.8°F21.6°C 70% 15.9 mph S25.6 kmh S 22.1 mph35.6 kmh 29.83 in1010.2 mb 0.00 in0.0 mm 0.00 in0.0 mm 0.01 in0.3 mm
01:40 PM 81.7°F27.6°C 70.6°F21.4°C 69% 17.4 mph S28.0 kmh S 24.4 mph39.3 kmh 29.83 in1010.2 mb 0.00 in0.0 mm 0.00 in0.0 mm 0.01 in0.3 mm
01:45 PM 81.1°F27.3°C 70.5°F21.4°C 70% 13.0 mph S20.9 kmh S 24.4 mph39.3 kmh 29.84 in1010.5 mb 0.00 in0.0 mm 0.00 in0.0 mm 0.01 in0.3 mm
01:50 PM 80.4°F26.9°C 69.8°F21.0°C 70% 13.6 mph S21.9 kmh S 24.4 mph39.3 kmh 29.83 in1010.2 mb 0.00 in0.0 mm 0.00 in0.0 mm 0.01 in0.3 mm
01:55 PM 79.9°F26.6°C 69.7°F20.9°C 71% 14.5 mph S23.3 kmh S 24.4 mph39.3 kmh 29.82 in1009.8 mb 0.00 in0.0 mm 0.00 in0.0 mm 0.01 in0.3 mm
02:00 PM 79.2°F26.2°C 69.4°F20.8°C 72% 17.4 mph S28.0 kmh S 22.1 mph35.6 kmh 29.82 in1009.8 mb 0.00 in0.0 mm 0.00 in0.0 mm 0.01 in0.3 mm
02:05 PM 78.6°F25.9°C 69.3°F20.7°C 73% 13.6 mph S21.9 kmh S 22.1 mph35.6 kmh 29.83 in1010.2 mb 0.00 in0.0 mm 0.00 in0.0 mm 0.01 in0.3 mm
02:10 PM 78.6°F25.9°C 69.7°F20.9°C 74% 15.2 mph S24.5 kmh S 22.1 mph35.6 kmh 29.83 in1010.2 mb 0.00 in0.0 mm 0.00 in0.0 mm 0.01 in0.3 mm
02:15 PM 78.6°F25.9°C 70.1°F21.2°C 75% 12.1 mph S19.5 kmh S 22.1 mph35.6 kmh 29.83 in1010.2 mb 0.00 in0.0 mm 0.00 in0.0 mm 0.01 in0.3 mm
02:20 PM 78.4°F25.8°C 69.9°F21.1°C 75% 13.6 mph S21.9 kmh S 20.6 mph33.2 kmh 29.83 in1010.2 mb 0.00 in0.0 mm 0.00 in0.0 mm 0.01 in0.3 mm
02:25 PM 78.6°F25.9°C 70.1°F21.2°C 75% 15.9 mph SW25.6 kmh SW 25.9 mph41.7 kmh 29.87 in1011.5 mb 0.00 in0.0 mm 0.00 in0.0 mm 0.01 in0.3 mm
02:30 PM 77.7°F25.4°C 68.8°F20.4°C 74% 9.8 mph W15.8 kmh W 25.9 mph41.7 kmh 29.87 in1011.5 mb 0.00 in0.0 mm 0.00 in0.0 mm 0.01 in0.3 mm
02:35 PM 77.7°F25.4°C 68.8°F20.4°C 74% 9.8 mph NW15.8 kmh NW 25.9 mph41.7 kmh 29.86 in1011.2 mb 0.00 in0.0 mm 0.00 in0.0 mm 0.01 in0.3 mm
02:40 PM 75.6°F24.2°C 66.7°F19.3°C 74% 14.5 mph NW23.3 kmh NW 25.9 mph41.7 kmh 29.87 in1011.5 mb 0.00 in0.0 mm 0.00 in0.0 mm 0.01 in0.3 mm
02:45 PM 74.1°F23.4°C 65.3°F18.5°C 74% 8.3 mph NW13.4 kmh NW 25.9 mph41.7 kmh 29.86 in1011.2 mb 0.02 in0.5 mm 0.24 in6.1 mm 0.04 in1.0 mm
02:50 PM 73.4°F23.0°C 65.0°F18.3°C 75% 13.0 mph NW20.9 kmh NW 21.3 mph34.3 kmh 29.87 in1011.5 mb 0.02 in0.5 mm 0.00 in0.0 mm 0.04 in1.0 mm
02:55 PM 72.9°F22.7°C 64.5°F18.1°C 75% 10.7 mph NW17.2 kmh NW 20.6 mph33.2 kmh 29.86 in1011.2 mb 0.02 in0.5 mm 0.00 in0.0 mm 0.04 in1.0 mm
03:00 PM 72.5°F22.5°C 64.5°F18.1°C 76% 11.4 mph NW18.3 kmh NW 22.1 mph35.6 kmh 29.86 in1011.2 mb 0.02 in0.5 mm 0.00 in0.0 mm 0.04 in1.0 mm
03:05 PM 72.1°F22.3°C 64.2°F17.9°C 76% 8.3 mph NW13.4 kmh NW 22.1 mph35.6 kmh 29.86 in1011.2 mb 0.02 in0.5 mm 0.00 in0.0 mm 0.04 in1.0 mm
03:10 PM 72.0°F22.2°C 64.4°F18.0°C 77% 9.2 mph NW14.8 kmh NW 17.4 mph28.0 kmh 29.87 in1011.5 mb 0.02 in0.5 mm 0.00 in0.0 mm 0.04 in1.0 mm
03:15 PM 71.4°F21.9°C 63.9°F17.7°C 77% 6.0 mph NW9.7 kmh NW 17.4 mph28.0 kmh 29.88 in1011.9 mb 0.02 in0.5 mm 0.00 in0.0 mm 0.04 in1.0 mm
03:20 PM 71.4°F21.9°C 63.9°F17.7°C 77% 3.1 mph WNW5.0 kmh WNW 15.9 mph25.6 kmh 29.89 in1012.2 mb 0.02 in0.5 mm 0.00 in0.0 mm 0.04 in1.0 mm
03:25 PM 71.4°F21.9°C 64.2°F17.9°C 78% 3.8 mph W6.1 kmh W 9.8 mph15.8 kmh 29.89 in1012.2 mb 0.02 in0.5 mm 0.00 in0.0 mm 0.04 in1.0 mm
03:30 PM 70.7°F21.5°C 63.5°F17.5°C 78% 11.4 mph NW18.3 kmh NW 16.8 mph27.0 kmh 29.87 in1011.5 mb 0.02 in0.5 mm 0.00 in0.0 mm 0.04 in1.0 mm
03:35 PM 70.7°F21.5°C 63.5°F17.5°C 78% 11.4 mph NW18.3 kmh NW 16.8 mph27.0 kmh 29.88 in1011.9 mb 0.02 in0.5 mm 0.00 in0.0 mm 0.04 in1.0 mm
03:40 PM 70.3°F21.3°C 63.5°F17.5°C 79% 9.2 mph NW14.8 kmh NW 23.5 mph37.8 kmh 29.89 in1012.2 mb 0.04 in1.0 mm 0.24 in6.1 mm 0.06 in1.5 mm
03:45 PM 70.3°F21.3°C 63.5°F17.5°C 79% 9.2 mph NW14.8 kmh NW 23.5 mph37.8 kmh 29.89 in1012.2 mb 0.05 in1.3 mm 0.12 in3.0 mm 0.08 in2.0 mm
03:50 PM 69.8°F21.0°C 63.0°F17.2°C 79% 7.6 mph NW12.2 kmh NW 19.0 mph30.6 kmh 29.89 in1012.2 mb 0.05 in1.3 mm 0.00 in0.0 mm 0.08 in2.0 mm
03:55 PM 69.6°F20.9°C 62.8°F17.1°C 79% 9.2 mph WNW14.8 kmh WNW 13.0 mph20.9 kmh 29.90 in1012.5 mb 0.05 in1.3 mm 0.00 in0.0 mm 0.08 in2.0 mm
04:00 PM 69.6°F20.9°C 63.2°F17.3°C 80% 15.9 mph NW25.6 kmh NW 21.3 mph34.3 kmh 29.89 in1012.2 mb 0.05 in1.3 mm 0.00 in0.0 mm 0.08 in2.0 mm
04:05 PM 69.4°F20.8°C 63.0°F17.2°C 80% 8.3 mph NW13.4 kmh NW 21.3 mph34.3 kmh 29.89 in1012.2 mb 0.05 in1.3 mm 0.00 in0.0 mm 0.08 in2.0 mm
04:10 PM 69.4°F20.8°C 63.0°F17.2°C 80% 6.0 mph NNW9.7 kmh NNW 19.7 mph31.7 kmh 29.88 in1011.9 mb 0.05 in1.3 mm 0.00 in0.0 mm 0.08 in2.0 mm
04:15 PM 69.3°F20.7°C 62.9°F17.2°C 80% 6.9 mph N11.1 kmh N 10.7 mph17.2 kmh 29.89 in1012.2 mb 0.05 in1.3 mm 0.00 in0.0 mm 0.08 in2.0 mm
04:20 PM 69.3°F20.7°C 62.9°F17.2°C 80% 6.0 mph NNW9.7 kmh NNW 11.4 mph18.3 kmh 29.89 in1012.2 mb 0.05 in1.3 mm 0.00 in0.0 mm 0.08 in2.0 mm
04:25 PM 69.1°F20.6°C 63.0°F17.2°C 81% 9.2 mph NNW14.8 kmh NNW 12.1 mph19.5 kmh 29.87 in1011.5 mb 0.05 in1.3 mm 0.00 in0.0 mm 0.08 in2.0 mm
04:30 PM 69.1°F20.6°C 63.0°F17.2°C 81% 6.9 mph NNW11.1 kmh NNW 13.6 mph21.9 kmh 29.89 in1012.2 mb 0.05 in1.3 mm 0.00 in0.0 mm 0.08 in2.0 mm
04:35 PM 69.1°F20.6°C 63.0°F17.2°C 81% 6.9 mph NNW11.1 kmh NNW 13.6 mph21.9 kmh 29.88 in1011.9 mb 0.05 in1.3 mm 0.00 in0.0 mm 0.08 in2.0 mm
04:40 PM 68.7°F20.4°C 62.7°F17.1°C 81% 7.6 mph NW12.2 kmh NW 11.4 mph18.3 kmh 29.89 in1012.2 mb 0.02 in0.5 mm 0.00 in0.0 mm 0.08 in2.0 mm
04:45 PM 68.7°F20.4°C 62.7°F17.1°C 81% 9.2 mph NW14.8 kmh NW 15.2 mph24.5 kmh 29.90 in1012.5 mb 0.00 in0.0 mm 0.00 in0.0 mm 0.08 in2.0 mm
04:50 PM 68.5°F20.3°C 62.5°F16.9°C 81% 4.5 mph NW7.2 kmh NW 15.2 mph24.5 kmh 29.91 in1012.9 mb 0.00 in0.0 mm 0.00 in0.0 mm 0.08 in2.0 mm
04:55 PM 68.2°F20.1°C 62.5°F16.9°C 82% 3.8 mph NW6.1 kmh NW 13.0 mph20.9 kmh 29.91 in1012.9 mb 0.00 in0.0 mm 0.00 in0.0 mm 0.08 in2.0 mm
05:00 PM 68.4°F20.2°C 62.7°F17.1°C 82% 6.0 mph NW9.7 kmh NW 9.2 mph14.8 kmh 29.91 in1012.9 mb 0.00 in0.0 mm 0.00 in0.0 mm 0.08 in2.0 mm
05:05 PM 68.2°F20.1°C 62.5°F16.9°C 82% 8.3 mph NW13.4 kmh NW 13.0 mph20.9 kmh 29.90 in1012.5 mb 0.00 in0.0 mm 0.00 in0.0 mm 0.08 in2.0 mm
05:10 PM 68.0°F20.0°C 62.3°F16.8°C 82% 6.9 mph NNW11.1 kmh NNW 13.0 mph20.9 kmh 29.90 in1012.5 mb 0.00 in0.0 mm 0.00 in0.0 mm 0.08 in2.0 mm
05:15 PM 67.8°F19.9°C 62.1°F16.7°C 82% 6.9 mph N11.1 kmh N 11.4 mph18.3 kmh 29.89 in1012.2 mb 0.00 in0.0 mm 0.00 in0.0 mm 0.08 in2.0 mm
05:20 PM 67.8°F19.9°C 62.1°F16.7°C 82% 8.3 mph N13.4 kmh N 11.4 mph18.3 kmh 29.89 in1012.2 mb 0.00 in0.0 mm 0.00 in0.0 mm 0.08 in2.0 mm
05:25 PM 67.6°F19.8°C 62.3°F16.8°C 83% 7.6 mph NNW12.2 kmh NNW 12.1 mph19.5 kmh 29.89 in1012.2 mb 0.00 in0.0 mm 0.00 in0.0 mm 0.08 in2.0 mm
05:30 PM 67.6°F19.8°C 62.3°F16.8°C 83% 6.9 mph NNW11.1 kmh NNW 12.1 mph19.5 kmh 29.89 in1012.2 mb 0.00 in0.0 mm 0.00 in0.0 mm 0.08 in2.0 mm
05:35 PM 67.5°F19.7°C 62.1°F16.7°C 83% 6.9 mph NNW11.1 kmh NNW 11.4 mph18.3 kmh 29.91 in1012.9 mb 0.00 in0.0 mm 0.00 in0.0 mm 0.08 in2.0 mm
05:40 PM 67.5°F19.7°C 62.1°F16.7°C 83% 4.5 mph NW7.2 kmh NW 11.4 mph18.3 kmh 29.92 in1013.2 mb 0.00 in0.0 mm 0.00 in0.0 mm 0.08 in2.0 mm
05:45 PM 67.6°F19.8°C 62.3°F16.8°C 83% 3.8 mph NW6.1 kmh NW 9.8 mph15.8 kmh 29.92 in1013.2 mb 0.00 in0.0 mm 0.00 in0.0 mm 0.08 in2.0 mm
05:50 PM 67.5°F19.7°C 62.1°F16.7°C 83% 1.6 mph NW2.6 kmh NW 7.6 mph12.2 kmh 29.92 in1013.2 mb 0.00 in0.0 mm 0.00 in0.0 mm 0.08 in2.0 mm
05:55 PM 67.3°F19.6°C 62.0°F16.7°C 83% 6.9 mph NW11.1 kmh NW 9.2 mph14.8 kmh 29.91 in1012.9 mb 0.00 in0.0 mm 0.00 in0.0 mm 0.08 in2.0 mm
06:00 PM 67.1°F19.5°C 61.8°F16.6°C 83% 6.9 mph NW11.1 kmh NW 9.2 mph14.8 kmh 29.90 in1012.5 mb 0.00 in0.0 mm 0.00 in0.0 mm 0.08 in2.0 mm
06:05 PM 66.9°F19.4°C 61.6°F16.4°C 83% 3.1 mph NNW5.0 kmh NNW 9.2 mph14.8 kmh 29.90 in1012.5 mb 0.00 in0.0 mm 0.00 in0.0 mm 0.08 in2.0 mm
06:10 PM 66.7°F19.3°C 61.8°F16.6°C 84% 1.6 mph N2.6 kmh N 9.2 mph14.8 kmh 29.91 in1012.9 mb 0.00 in0.0 mm 0.00 in0.0 mm 0.08 in2.0 mm
06:15 PM 67.1°F19.5°C 62.1°F16.7°C 84% 3.8 mph N6.1 kmh N 9.2 mph14.8 kmh 29.91 in1012.9 mb 0.00 in0.0 mm 0.00 in0.0 mm 0.08 in2.0 mm
06:20 PM 66.9°F19.4°C 62.0°F16.7°C 84% 6.0 mph NNW9.7 kmh NNW 9.8 mph15.8 kmh 29.89 in1012.2 mb 0.00 in0.0 mm 0.00 in0.0 mm 0.08 in2.0 mm
06:25 PM 66.7°F19.3°C 61.8°F16.6°C 84% 3.1 mph NNW5.0 kmh NNW 9.8 mph15.8 kmh 29.89 in1012.2 mb 0.00 in0.0 mm 0.00 in0.0 mm 0.08 in2.0 mm
06:30 PM 66.6°F19.2°C 61.6°F16.4°C 84% 3.8 mph N6.1 kmh N 9.8 mph15.8 kmh 29.90 in1012.5 mb 0.00 in0.0 mm 0.00 in0.0 mm 0.08 in2.0 mm
06:35 PM 66.4°F19.1°C 61.4°F16.3°C 84% 1.6 mph N2.6 kmh N 6.9 mph11.1 kmh 29.91 in1012.9 mb 0.00 in0.0 mm 0.00 in0.0 mm 0.08 in2.0 mm
06:40 PM 66.7°F19.3°C 61.8°F16.6°C 84% 1.6 mph N2.6 kmh N 5.4 mph8.7 kmh 29.90 in1012.5 mb 0.00 in0.0 mm 0.00 in0.0 mm 0.08 in2.0 mm
06:45 PM 66.7°F19.3°C 61.8°F16.6°C 84% 2.2 mph N3.5 kmh N 4.5 mph7.2 kmh 29.90 in1012.5 mb 0.00 in0.0 mm 0.00 in0.0 mm 0.08 in2.0 mm
06:50 PM 66.7°F19.3°C 61.8°F16.6°C 84% 6.0 mph N9.7 kmh N 8.3 mph13.4 kmh 29.91 in1012.9 mb 0.00 in0.0 mm 0.00 in0.0 mm 0.08 in2.0 mm
06:55 PM 66.6°F19.2°C 61.6°F16.4°C 84% 5.4 mph NNW8.7 kmh NNW 10.7 mph17.2 kmh 29.92 in1013.2 mb 0.00 in0.0 mm 0.00 in0.0 mm 0.08 in2.0 mm
07:00 PM 66.6°F19.2°C 61.6°F16.4°C 84% 9.2 mph NW14.8 kmh NW 13.0 mph20.9 kmh 29.92 in1013.2 mb 0.00 in0.0 mm 0.00 in0.0 mm 0.08 in2.0 mm
07:05 PM 66.4°F19.1°C 61.8°F16.6°C 85% 6.0 mph NW9.7 kmh NW 13.0 mph20.9 kmh 29.91 in1012.9 mb 0.00 in0.0 mm 0.00 in0.0 mm 0.08 in2.0 mm
07:10 PM 66.2°F19.0°C 61.6°F16.4°C 85% 3.1 mph NW5.0 kmh NW 13.0 mph20.9 kmh 29.92 in1013.2 mb 0.00 in0.0 mm 0.00 in0.0 mm 0.08 in2.0 mm
07:15 PM 66.2°F19.0°C 61.6°F16.4°C 85% Calm Calm 7.6 mph12.2 kmh 29.92 in1013.2 mb 0.00 in0.0 mm 0.00 in0.0 mm 0.08 in2.0 mm
07:20 PM 66.2°F19.0°C 61.6°F16.4°C 85% 1.6 mph NW2.6 kmh NW 5.4 mph8.7 kmh 29.93 in1013.5 mb 0.00 in0.0 mm 0.00 in0.0 mm 0.08 in2.0 mm
07:25 PM 66.0°F18.9°C 61.1°F16.2°C 84% 0.7 mph NW1.1 kmh NW 3.1 mph5.0 kmh 29.93 in1013.5 mb 0.00 in0.0 mm 0.00 in0.0 mm 0.08 in2.0 mm
07:30 PM 66.2°F19.0°C 61.2°F16.2°C 84% 1.6 mph NW2.6 kmh NW 4.5 mph7.2 kmh 29.93 in1013.5 mb 0.00 in0.0 mm 0.00 in0.0 mm 0.08 in2.0 mm
07:35 PM 66.0°F18.9°C 61.1°F16.2°C 84% 1.6 mph NW2.6 kmh NW 4.5 mph7.2 kmh 29.94 in1013.9 mb 0.00 in0.0 mm 0.00 in0.0 mm 0.08 in2.0 mm
07:40 PM 65.8°F18.8°C 60.9°F16.1°C 84% 1.6 mph NW2.6 kmh NW 4.5 mph7.2 kmh 29.93 in1013.5 mb 0.00 in0.0 mm 0.00 in0.0 mm 0.08 in2.0 mm
07:45 PM 65.7°F18.7°C 60.7°F15.9°C 84% 1.6 mph NW2.6 kmh NW 4.5 mph7.2 kmh 29.94 in1013.9 mb 0.00 in0.0 mm 0.00 in0.0 mm 0.08 in2.0 mm
07:50 PM 65.8°F18.8°C 60.9°F16.1°C 84% 0.7 mph NW1.1 kmh NW 3.8 mph6.1 kmh 29.93 in1013.5 mb 0.00 in0.0 mm 0.00 in0.0 mm 0.08 in2.0 mm
07:55 PM 65.7°F18.7°C 60.7°F15.9°C 84% 1.6 mph NW2.6 kmh NW 3.1 mph5.0 kmh 29.93 in1013.5 mb 0.00 in0.0 mm 0.00 in0.0 mm 0.08 in2.0 mm
08:00 PM 65.7°F18.7°C 60.7°F15.9°C 84% 0.7 mph NW1.1 kmh NW 2.2 mph3.5 kmh 29.92 in1013.2 mb 0.00 in0.0 mm 0.00 in0.0 mm 0.08 in2.0 mm
08:05 PM 65.7°F18.7°C 60.7°F15.9°C 84% 1.6 mph NW2.6 kmh NW 2.2 mph3.5 kmh 29.93 in1013.5 mb 0.00 in0.0 mm 0.00 in0.0 mm 0.08 in2.0 mm
08:10 PM 65.7°F18.7°C 60.7°F15.9°C 84% 3.1 mph NW5.0 kmh NW 6.0 mph9.7 kmh 29.93 in1013.5 mb 0.00 in0.0 mm 0.00 in0.0 mm 0.08 in2.0 mm
08:15 PM 65.5°F18.6°C 60.5°F15.8°C 84% 1.6 mph NW2.6 kmh NW 6.9 mph11.1 kmh 29.94 in1013.9 mb 0.00 in0.0 mm 0.00 in0.0 mm 0.08 in2.0 mm
08:20 PM 65.8°F18.8°C 60.9°F16.1°C 84% 5.4 mph WNW8.7 kmh WNW 7.6 mph12.2 kmh 29.95 in1014.2 mb 0.00 in0.0 mm 0.00 in0.0 mm 0.08 in2.0 mm
08:25 PM 65.7°F18.7°C 60.7°F15.9°C 84% 2.2 mph W3.5 kmh W 7.6 mph12.2 kmh 29.94 in1013.9 mb 0.00 in0.0 mm 0.00 in0.0 mm 0.08 in2.0 mm
08:30 PM 65.8°F18.8°C 60.9°F16.1°C 84% 5.4 mph W8.7 kmh W 8.3 mph13.4 kmh 29.95 in1014.2 mb 0.00 in0.0 mm 0.00 in0.0 mm 0.08 in2.0 mm
08:35 PM 65.7°F18.7°C 60.7°F15.9°C 84% 4.5 mph W7.2 kmh W 8.3 mph13.4 kmh 29.96 in1014.6 mb 0.00 in0.0 mm 0.00 in0.0 mm 0.08 in2.0 mm
08:40 PM 65.5°F18.6°C 60.5°F15.8°C 84% 4.5 mph W7.2 kmh W 8.3 mph13.4 kmh 29.96 in1014.6 mb 0.00 in0.0 mm 0.00 in0.0 mm 0.08 in2.0 mm
08:45 PM 65.7°F18.7°C 60.7°F15.9°C 84% 4.5 mph W7.2 kmh W 8.3 mph13.4 kmh 29.95 in1014.2 mb 0.00 in0.0 mm 0.00 in0.0 mm 0.08 in2.0 mm
08:50 PM 65.7°F18.7°C 60.7°F15.9°C 84% 6.9 mph WNW11.1 kmh WNW 14.5 mph23.3 kmh 29.95 in1014.2 mb 0.00 in0.0 mm 0.00 in0.0 mm 0.08 in2.0 mm
08:55 PM 65.7°F18.7°C 60.7°F15.9°C 84% 11.4 mph NW18.3 kmh NW 19.0 mph30.6 kmh 29.96 in1014.6 mb 0.00 in0.0 mm 0.00 in0.0 mm 0.08 in2.0 mm
09:00 PM 65.3°F18.5°C 60.4°F15.8°C 84% 6.0 mph NW9.7 kmh NW 19.0 mph30.6 kmh 29.96 in1014.6 mb 0.00 in0.0 mm 0.00 in0.0 mm 0.08 in2.0 mm
09:05 PM 65.3°F18.5°C 60.4°F15.8°C 84% 1.6 mph WNW2.6 kmh WNW 18.3 mph29.5 kmh 29.96 in1014.6 mb 0.00 in0.0 mm 0.00 in0.0 mm 0.08 in2.0 mm
09:10 PM 65.1°F18.4°C 60.2°F15.7°C 84% 5.4 mph WNW8.7 kmh WNW 9.2 mph14.8 kmh 29.96 in1014.6 mb 0.00 in0.0 mm 0.00 in0.0 mm 0.08 in2.0 mm
09:15 PM 64.8°F18.2°C 59.8°F15.4°C 84% 3.8 mph NW6.1 kmh NW 8.3 mph13.4 kmh 29.96 in1014.6 mb 0.00 in0.0 mm 0.00 in0.0 mm 0.08 in2.0 mm
09:20 PM 64.6°F18.1°C 59.7°F15.4°C 84% 5.4 mph WNW8.7 kmh WNW 10.7 mph17.2 kmh 29.98 in1015.2 mb 0.00 in0.0 mm 0.00 in0.0 mm 0.08 in2.0 mm
09:25 PM 64.8°F18.2°C 59.8°F15.4°C 84% 3.8 mph W6.1 kmh W 10.7 mph17.2 kmh 29.98 in1015.2 mb 0.00 in0.0 mm 0.00 in0.0 mm 0.08 in2.0 mm
09:30 PM 64.8°F18.2°C 59.8°F15.4°C 84% 4.5 mph W7.2 kmh W 8.3 mph13.4 kmh 29.97 in1014.9 mb 0.00 in0.0 mm 0.00 in0.0 mm 0.08 in2.0 mm
09:35 PM 64.6°F18.1°C 59.7°F15.4°C 84% 3.1 mph W5.0 kmh W 6.9 mph11.1 kmh 29.96 in1014.6 mb 0.00 in0.0 mm 0.00 in0.0 mm 0.08 in2.0 mm
09:40 PM 64.4°F18.0°C 59.5°F15.3°C 84% 4.5 mph WNW7.2 kmh WNW 7.6 mph12.2 kmh 29.96 in1014.6 mb 0.00 in0.0 mm 0.00 in0.0 mm 0.08 in2.0 mm
09:45 PM 64.2°F17.9°C 59.6°F15.3°C 85% 4.5 mph NW7.2 kmh NW 11.4 mph18.3 kmh 29.97 in1014.9 mb 0.00 in0.0 mm 0.00 in0.0 mm 0.08 in2.0 mm
09:50 PM 64.0°F17.8°C 59.5°F15.3°C 85% 3.1 mph WNW5.0 kmh WNW 11.4 mph18.3 kmh 29.98 in1015.2 mb 0.00 in0.0 mm 0.00 in0.0 mm 0.08 in2.0 mm
09:55 PM 63.7°F17.6°C 59.1°F15.1°C 85% 3.1 mph W5.0 kmh W 7.6 mph12.2 kmh 29.98 in1015.2 mb 0.00 in0.0 mm 0.00 in0.0 mm 0.08 in2.0 mm
10:00 PM 63.9°F17.7°C 59.3°F15.2°C 85% 3.8 mph WNW6.1 kmh WNW 9.2 mph14.8 kmh 29.98 in1015.2 mb 0.00 in0.0 mm 0.00 in0.0 mm 0.08 in2.0 mm
10:05 PM 63.7°F17.6°C 59.1°F15.1°C 85% 3.8 mph NW6.1 kmh NW 10.7 mph17.2 kmh 29.98 in1015.2 mb 0.00 in0.0 mm 0.00 in0.0 mm 0.08 in2.0 mm
10:10 PM 63.7°F17.6°C 59.1°F15.1°C 85% 6.0 mph WNW9.7 kmh WNW 10.7 mph17.2 kmh 29.97 in1014.9 mb 0.00 in0.0 mm 0.00 in0.0 mm 0.08 in2.0 mm
10:15 PM 63.9°F17.7°C 59.3°F15.2°C 85% 3.8 mph NW6.1 kmh NW 9.2 mph14.8 kmh 29.97 in1014.9 mb 0.00 in0.0 mm 0.00 in0.0 mm 0.08 in2.0 mm
10:20 PM 63.5°F17.5°C 58.9°F14.9°C 85% 4.5 mph NW7.2 kmh NW 9.2 mph14.8 kmh 29.98 in1015.2 mb 0.00 in0.0 mm 0.00 in0.0 mm 0.08 in2.0 mm
10:25 PM 63.5°F17.5°C 58.9°F14.9°C 85% 6.0 mph WNW9.7 kmh WNW 10.7 mph17.2 kmh 29.99 in1015.6 mb 0.00 in0.0 mm 0.00 in0.0 mm 0.08 in2.0 mm
10:30 PM 63.5°F17.5°C 58.9°F14.9°C 85% 3.1 mph WNW5.0 kmh WNW 10.7 mph17.2 kmh 29.99 in1015.6 mb 0.00 in0.0 mm 0.00 in0.0 mm 0.08 in2.0 mm
10:35 PM 63.5°F17.5°C 58.9°F14.9°C 85% 7.6 mph WNW12.2 kmh WNW 11.4 mph18.3 kmh 29.99 in1015.6 mb 0.00 in0.0 mm 0.00 in0.0 mm 0.08 in2.0 mm
10:40 PM 63.3°F17.4°C 58.8°F14.9°C 85% 3.8 mph NW6.1 kmh NW 13.0 mph20.9 kmh 30.01 in1016.3 mb 0.00 in0.0 mm 0.00 in0.0 mm 0.08 in2.0 mm
10:45 PM 63.3°F17.4°C 58.8°F14.9°C 85% 6.0 mph W9.7 kmh W 13.0 mph20.9 kmh 30.01 in1016.3 mb 0.00 in0.0 mm 0.00 in0.0 mm 0.08 in2.0 mm
10:50 PM 63.3°F17.4°C 58.8°F14.9°C 85% 4.5 mph W7.2 kmh W 9.2 mph14.8 kmh 30.01 in1016.3 mb 0.00 in0.0 mm 0.00 in0.0 mm 0.08 in2.0 mm
10:55 PM 63.1°F17.3°C 58.6°F14.8°C 85% 5.4 mph NW8.7 kmh NW 11.4 mph18.3 kmh 29.99 in1015.6 mb 0.00 in0.0 mm 0.00 in0.0 mm 0.08 in2.0 mm
11:00 PM 63.1°F17.3°C 58.6°F14.8°C 85% 6.9 mph NW11.1 kmh NW 13.0 mph20.9 kmh 30.00 in1015.9 mb 0.00 in0.0 mm 0.00 in0.0 mm 0.08 in2.0 mm
11:05 PM 63.0°F17.2°C 58.4°F14.7°C 85% 4.5 mph WNW7.2 kmh WNW 13.0 mph20.9 kmh 29.98 in1015.2 mb 0.00 in0.0 mm 0.00 in0.0 mm 0.08 in2.0 mm
11:10 PM 62.8°F17.1°C 58.2°F14.6°C 85% 11.4 mph WNW18.3 kmh WNW 18.3 mph29.5 kmh 29.99 in1015.6 mb 0.00 in0.0 mm 0.00 in0.0 mm 0.08 in2.0 mm
11:15 PM 62.6°F17.0°C 58.0°F14.4°C 85% 10.7 mph NW17.2 kmh NW 18.3 mph29.5 kmh 30.00 in1015.9 mb 0.00 in0.0 mm 0.00 in0.0 mm 0.08 in2.0 mm
11:20 PM 62.4°F16.9°C 57.9°F14.4°C 85% 5.4 mph WNW8.7 kmh WNW 17.4 mph28.0 kmh 30.02 in1016.6 mb 0.00 in0.0 mm 0.00 in0.0 mm 0.08 in2.0 mm
11:25 PM 62.4°F16.9°C 57.9°F14.4°C 85% 6.9 mph WNW11.1 kmh WNW 16.8 mph27.0 kmh 30.02 in1016.6 mb 0.00 in0.0 mm 0.00 in0.0 mm 0.08 in2.0 mm
11:30 PM 62.1°F16.7°C 57.5°F14.2°C 85% 9.8 mph WNW15.8 kmh WNW 16.8 mph27.0 kmh 30.02 in1016.6 mb 0.00 in0.0 mm 0.00 in0.0 mm 0.08 in2.0 mm
11:35 PM 61.9°F16.6°C 57.3°F14.1°C 85% 8.3 mph WNW13.4 kmh WNW 18.3 mph29.5 kmh 30.01 in1016.3 mb 0.00 in0.0 mm 0.00 in0.0 mm 0.08 in2.0 mm
11:40 PM 61.9°F16.6°C 57.3°F14.1°C 85% 7.6 mph NW12.2 kmh NW 18.3 mph29.5 kmh 30.01 in1016.3 mb 0.00 in0.0 mm 0.00 in0.0 mm 0.08 in2.0 mm
11:45 PM 61.7°F16.5°C 56.8°F13.8°C 84% 13.6 mph NW21.9 kmh NW 19.0 mph30.6 kmh 30.02 in1016.6 mb 0.00 in0.0 mm 0.00 in0.0 mm 0.08 in2.0 mm
11:50 PM 61.5°F16.4°C 57.0°F13.9°C 85% 11.4 mph NW18.3 kmh NW 21.3 mph34.3 kmh 30.02 in1016.6 mb 0.01 in0.3 mm 0.12 in3.0 mm 0.09 in2.3 mm
11:55 PM 61.3°F16.3°C 56.5°F13.6°C 84% 7.6 mph NW12.2 kmh NW 21.3 mph34.3 kmh 30.00 in1015.9 mb 0.01 in0.3 mm 0.00 in0.0 mm 0.09 in2.3 mm